This is the latest recevied weather packets stored in our database for station/object KA1JKB. If no packets are shown the sender has not sent any weather packets the latest 10 day(s).
| Time | Temp. | Humidity | Pressure | Rain* | Wind** | Luminosity | Snow |
|---|---|---|---|---|---|---|---|
| 1787963094 | 18.33° C | 89% | 1018.2 hPa | 0 mm | - | 0 W/m² | - |
| 1787962793 | 18.89° C | 88% | 1018.4 hPa | 0 mm | - | 1 W/m² | - |
| 1787962492 | 18.89° C | 87% | 1018.2 hPa | 0 mm | - | 3 W/m² | - |
| 1787962190 | 20° C | 87% | 1018.3 hPa | 0 mm | - | 6 W/m² | - |
| 1787961885 | 20° C | 86% | 1018.3 hPa | 0 mm | - | 10 W/m² | - |
| 1787961583 | 20.56° C | 85% | 1018.5 hPa | 0 mm | - | 12 W/m² | - |
| 1787961279 | 21.11° C | 83% | 1018.4 hPa | 0 mm | - | 16 W/m² | - |
| 1787960979 | 21.67° C | 79% | 1018.3 hPa | 0 mm | - | 20 W/m² | - |
| 1787960674 | 22.22° C | 76% | 1018.4 hPa | 0 mm | - | 22 W/m² | - |
| 1787960372 | 22.78° C | 71% | 1018.3 hPa | 0 mm | - | 26 W/m² | - |
| 1787960067 | 23.33° C | 66% | 1018.3 hPa | 0 mm | - | 30 W/m² | - |
| 1787959762 | 23.89° C | 65% | 1018.5 hPa | 0 mm | - | 34 W/m² | - |
| 1787959458 | 23.89° C | 64% | 1018.3 hPa | 0 mm | - | 37 W/m² | - |
| 1787959152 | 25° C | 61% | 1018.5 hPa | 0 mm | - | 62 W/m² | - |
| 1787958848 | 25° C | 60% | 1018.5 hPa | 0 mm | - | 72 W/m² | - |
| 1787958542 | 25.56° C | 57% | 1018.3 hPa | 0 mm | - | 46 W/m² | - |
| 1787958239 | 25.56° C | 58% | 1018.4 hPa | 0 mm | - | 91 W/m² | - |
| 1787957938 | 26.11° C | 57% | 1018.6 hPa | 0 mm | - | 52 W/m² | - |
| 1787957637 | 26.11° C | 54% | 1018.5 hPa | 0 mm | - | 117 W/m² | - |
| 1787957333 | 26.11° C | 53% | 1018.5 hPa | 0 mm | - | 135 W/m² | - |
| 1787957032 | 25.56° C | 52% | 1018.5 hPa | 0 mm | - | 65 W/m² | - |
| 1787956731 | 26.11° C | 52% | 1018.6 hPa | 0 mm | - | 66 W/m² | - |
| 1787956427 | 26.67° C | 53% | 1018.7 hPa | 0 mm | - | 177 W/m² | - |
| 1787956122 | 26.67° C | 51% | 1018.6 hPa | 0 mm | - | 176 W/m² | - |
| 1787955817 | 26.11° C | 51% | 1018.4 hPa | 0 mm | - | 213 W/m² | - |
* Rain latest hour (hover to see other rain measurements)
** Current wind speed in m/s (hover to see current wind gust speed)